createdAt,value
2022-08-26T00:06:33.070Z,97150.44
2022-08-26T00:09:08.107Z,97153.92
2022-08-26T00:12:17.830Z,97151.89
2022-08-26T00:15:12.636Z,97149.96
2022-08-26T00:18:22.549Z,97151.80
2022-08-26T00:21:30.318Z,97150.80
2022-08-26T00:24:03.289Z,97152.87
2022-08-26T00:30:42.059Z,97148.05
2022-08-26T00:33:14.781Z,97148.03
2022-08-26T00:36:25.594Z,97142.63
2022-08-26T00:46:00.035Z,97144.40
2022-08-26T00:49:34.724Z,97142.50
2022-08-26T00:52:27.453Z,97141.54
2022-08-26T00:55:38.248Z,97142.36
2022-08-26T00:59:05.621Z,97143.04
2022-08-26T01:02:20.826Z,97146.86
2022-08-26T01:05:14.568Z,97146.03
2022-08-26T01:08:07.216Z,97138.36
2022-08-26T01:11:35.605Z,97133.22
2022-08-26T01:14:31.608Z,97128.61
2022-08-26T01:17:22.469Z,97136.04
2022-08-26T01:20:25.228Z,97136.35
2022-08-26T01:23:16.399Z,97133.20
2022-08-26T01:25:54.296Z,97134.04
2022-08-26T01:31:57.016Z,97129.70
2022-08-26T01:37:42.458Z,97135.04
2022-08-26T01:40:37.833Z,97133.92
2022-08-26T01:47:13.338Z,97128.98
2022-08-26T01:49:49.401Z,97126.91
2022-08-26T01:53:20.159Z,97122.47
2022-08-26T01:56:14.358Z,97125.81
2022-08-26T01:59:24.166Z,97125.88
2022-08-26T02:01:57.308Z,97122.39
2022-08-26T02:04:51.822Z,97123.74
2022-08-26T02:07:26.860Z,97126.65
2022-08-26T02:12:50.123Z,97121.84
2022-08-26T02:15:24.349Z,97119.79
2022-08-26T02:17:56.962Z,97119.52
2022-08-26T02:20:48.003Z,97122.64
2022-08-26T02:23:25.313Z,97122.81
2022-08-26T02:26:02.519Z,97126.60
2022-08-26T02:29:46.095Z,97124.05
2022-08-26T02:32:54.848Z,97123.46
2022-08-26T02:36:06.925Z,97123.49
2022-08-26T02:41:51.747Z,97118.64
2022-08-26T02:44:59.752Z,97113.80
2022-08-26T02:51:17.205Z,97111.97
2022-08-26T02:54:42.831Z,97111.67
2022-08-26T02:57:52.069Z,97110.47
2022-08-26T03:00:52.661Z,97106.69
2022-08-26T03:04:04.459Z,97108.89
2022-08-26T03:10:37.929Z,97105.14
2022-08-26T03:13:47.303Z,97103.23
2022-08-26T03:16:22.417Z,97103.53
2022-08-26T03:18:56.527Z,97100.54
2022-08-26T03:24:22.274Z,97104.12
2022-08-26T03:26:55.525Z,97099.86
2022-08-26T03:30:03.854Z,97098.83
2022-08-26T03:33:11.889Z,97101.52
2022-08-26T03:35:47.543Z,97100.80
2022-08-26T03:38:58.520Z,97096.23
2022-08-26T03:45:51.296Z,97095.35
2022-08-26T03:55:00.344Z,97099.33
2022-08-26T03:57:37.026Z,97098.58
2022-08-26T04:00:27.302Z,97097.72
2022-08-26T04:03:00.362Z,97097.91
2022-08-26T04:05:51.074Z,97100.67
2022-08-26T04:08:25.081Z,97097.69
2022-08-26T04:11:22.918Z,97091.64
2022-08-26T04:14:32.607Z,97090.47
2022-08-26T04:17:40.586Z,97090.30
2022-08-26T04:20:40.069Z,97085.88
2022-08-26T04:32:37.607Z,97077.92
2022-08-26T04:35:11.899Z,97079.48
2022-08-26T04:38:20.232Z,97079.35
2022-08-26T04:41:29.549Z,97083.12
2022-08-26T04:44:25.785Z,97085.57
2022-08-26T04:47:36.582Z,97087.77
2022-08-26T04:50:44.282Z,97086.20
2022-08-26T04:53:39.727Z,97084.64
2022-08-26T04:56:31.733Z,97085.07
2022-08-26T04:59:22.796Z,97088.22
2022-08-26T05:01:59.709Z,97083.23
2022-08-26T05:05:43.479Z,97081.50
2022-08-26T05:08:18.121Z,97080.14
2022-08-26T05:11:45.900Z,97081.83
2022-08-26T05:14:42.873Z,97081.49
2022-08-26T05:17:51.860Z,97082.39
2022-08-26T05:21:02.388Z,97082.98
2022-08-26T05:23:55.007Z,97084.70
2022-08-26T05:26:45.577Z,97084.97
2022-08-26T05:32:44.089Z,97085.16
2022-08-26T05:35:17.707Z,97089.63
2022-08-26T05:38:12.923Z,97089.90
2022-08-26T05:41:38.396Z,97094.39
2022-08-26T05:52:14.646Z,97093.80
2022-08-26T05:55:07.708Z,97090.88
2022-08-26T06:03:22.114Z,97093.02
2022-08-26T06:09:22.768Z,97091.09
2022-08-26T06:12:48.907Z,97095.52
2022-08-26T06:15:43.726Z,97094.37
2022-08-26T06:25:47.144Z,97095.98
2022-08-26T06:31:46.473Z,97101.21
2022-08-26T06:39:13.608Z,97105.44
2022-08-26T06:42:06.386Z,97106.89
2022-08-26T06:44:40.916Z,97108.42
2022-08-26T06:51:05.482Z,97113.58
2022-08-26T06:53:55.487Z,97108.58
2022-08-26T06:57:21.534Z,97112.95
2022-08-26T06:59:56.626Z,97111.29
2022-08-26T07:06:12.447Z,97115.27
2022-08-26T07:15:27.147Z,97122.75
2022-08-26T07:18:38.486Z,97120.55
2022-08-26T07:25:24.616Z,97117.39
2022-08-26T07:29:10.082Z,97117.36
2022-08-26T07:31:43.710Z,97122.58
2022-08-26T07:34:34.576Z,97120.09
2022-08-26T07:37:08.672Z,97123.93
2022-08-26T07:43:08.751Z,97134.81
2022-08-26T07:45:42.840Z,97139.27
2022-08-26T07:48:34.145Z,97135.66
2022-08-26T07:54:49.160Z,97129.88
2022-08-26T08:01:08.882Z,97130.09
2022-08-26T08:04:01.005Z,97128.39
2022-08-26T08:10:38.601Z,97128.44
2022-08-26T08:13:12.010Z,97129.18
2022-08-26T08:16:12.721Z,97124.61
2022-08-26T08:19:03.163Z,97129.25
2022-08-26T08:25:08.144Z,97126.07
2022-08-26T08:31:08.015Z,97130.28
2022-08-26T08:33:41.191Z,97126.60
2022-08-26T08:39:42.812Z,97125.58
2022-08-26T08:42:36.820Z,97128.38
2022-08-26T08:48:27.916Z,97129.45
2022-08-26T08:51:11.251Z,97125.98
2022-08-26T08:57:13.500Z,97121.50
2022-08-26T09:03:56.921Z,97118.89
2022-08-26T09:06:30.117Z,97119.39
2022-08-26T09:12:50.121Z,97121.05
2022-08-26T09:16:14.030Z,97116.89
2022-08-26T09:19:19.357Z,97111.77
2022-08-26T09:22:27.865Z,97111.44
2022-08-26T09:25:18.702Z,97110.30
2022-08-26T09:31:21.550Z,97104.13
2022-08-26T09:34:17.887Z,97104.71
2022-08-26T09:37:10.816Z,97101.58
2022-08-26T09:40:45.420Z,97099.35
2022-08-26T09:43:23.446Z,97095.36
2022-08-26T09:49:32.707Z,97092.17
2022-08-26T09:52:16.377Z,97086.80
2022-08-26T09:55:16.219Z,97086.48
2022-08-26T09:57:51.498Z,97083.54
2022-08-26T10:01:01.653Z,97087.94
2022-08-26T10:04:14.280Z,97081.94
2022-08-26T10:13:52.491Z,97074.09
2022-08-26T10:17:05.519Z,97074.67
2022-08-26T10:23:34.133Z,97071.31
2022-08-26T10:26:50.082Z,97065.86
2022-08-26T10:30:17.796Z,97064.20
2022-08-26T10:33:14.916Z,97056.47
2022-08-26T10:36:15.305Z,97055.05
2022-08-26T10:39:29.407Z,97048.35
2022-08-26T10:42:39.698Z,97048.13
2022-08-26T10:45:35.435Z,97045.47
2022-08-26T10:48:35.239Z,97042.91
2022-08-26T10:52:19.517Z,97037.48
2022-08-26T10:58:44.751Z,97029.05
2022-08-26T11:01:54.964Z,97030.67
2022-08-26T11:04:55.338Z,97021.59
2022-08-26T11:19:01.119Z,97006.73
2022-08-26T11:22:05.448Z,97005.20
2022-08-26T11:25:14.934Z,97003.21
2022-08-26T11:28:07.169Z,97000.65
2022-08-26T11:30:56.846Z,97000.15
2022-08-26T11:34:14.289Z,96996.80
2022-08-26T11:37:01.869Z,96996.48
2022-08-26T11:40:05.714Z,96991.58
2022-08-26T11:42:43.558Z,96987.67
2022-08-26T11:45:55.135Z,96984.54
2022-08-26T11:49:21.309Z,96980.77
2022-08-26T11:52:13.364Z,96980.48
2022-08-26T11:55:05.377Z,96985.44
2022-08-26T11:57:45.601Z,96982.10
2022-08-26T12:00:45.731Z,96976.55
2022-08-26T12:07:04.708Z,96970.73
2022-08-26T12:09:56.306Z,96966.51
2022-08-26T12:13:03.447Z,96960.58
2022-08-26T12:15:55.895Z,96959.57
2022-08-26T12:18:50.843Z,96955.42
2022-08-26T12:21:44.844Z,96955.04
2022-08-26T12:25:13.020Z,96943.52
2022-08-26T12:27:51.815Z,96943.84
2022-08-26T12:30:59.957Z,96938.84
2022-08-26T12:33:36.332Z,96932.17
2022-08-26T12:36:29.255Z,96922.02
2022-08-26T12:39:48.332Z,96921.96
2022-08-26T12:42:44.848Z,96919.42
2022-08-26T12:45:58.035Z,96919.67
2022-08-26T12:49:09.136Z,96910.49
2022-08-26T12:51:58.919Z,96907.55
2022-08-26T12:55:09.802Z,96898.68
2022-08-26T12:58:36.766Z,96890.48
2022-08-26T13:01:28.155Z,96890.64
2022-08-26T13:04:18.217Z,96886.45
2022-08-26T13:06:51.003Z,96884.20
2022-08-26T13:09:37.652Z,96886.10
2022-08-26T13:12:11.778Z,96884.56
2022-08-26T13:14:44.820Z,96884.32
2022-08-26T13:17:36.197Z,96881.36
2022-08-26T13:20:26.859Z,96877.84
2022-08-26T13:23:00.593Z,96869.19
2022-08-26T13:42:23.329Z,96850.39
2022-08-26T13:44:58.257Z,96845.14
2022-08-26T13:47:31.793Z,96844.05
2022-08-26T13:50:22.044Z,96843.32
2022-08-26T13:56:23.351Z,96834.84
2022-08-26T13:59:15.126Z,96833.45
2022-08-26T14:02:05.439Z,96829.20
2022-08-26T14:08:19.451Z,96819.66
2022-08-26T14:11:11.937Z,96817.27
2022-08-26T14:13:44.931Z,96817.22
2022-08-26T14:16:23.611Z,96814.52
2022-08-26T14:26:08.534Z,96807.95
2022-08-26T14:29:17.073Z,96813.62
2022-08-26T14:36:17.231Z,96812.56
2022-08-26T14:39:08.354Z,96816.13
2022-08-26T14:41:44.965Z,96815.21
2022-08-26T14:44:37.298Z,96812.34
2022-08-26T14:47:29.349Z,96812.14
2022-08-26T14:50:37.073Z,96811.70
2022-08-26T14:53:52.740Z,96808.52
2022-08-26T14:56:26.716Z,96800.91
2022-08-26T14:59:35.874Z,96798.00
2022-08-26T15:02:43.785Z,96800.86
2022-08-26T15:05:17.201Z,96805.13
2022-08-26T15:11:37.456Z,96808.33
2022-08-26T15:14:45.418Z,96805.70
2022-08-26T15:18:11.764Z,96803.21
2022-08-26T15:21:36.454Z,96801.13
2022-08-26T15:24:46.673Z,96799.73
2022-08-26T15:27:56.383Z,96798.97
2022-08-26T15:30:46.362Z,96806.77
2022-08-26T15:33:40.717Z,96809.07
2022-08-26T15:37:26.313Z,96810.23
2022-08-26T15:43:29.148Z,96806.19
2022-08-26T15:46:02.367Z,96811.66
2022-08-26T15:48:38.557Z,96819.24
2022-08-26T15:55:10.469Z,96828.05
2022-08-26T16:01:09.523Z,96838.37
2022-08-26T16:07:07.637Z,96838.20
2022-08-26T16:10:00.181Z,96839.25
2022-08-26T16:12:33.078Z,96845.85
2022-08-26T16:15:29.200Z,96850.13
2022-08-26T16:18:18.047Z,96844.44
2022-08-26T16:21:29.432Z,96844.13
2022-08-26T16:27:48.360Z,96839.60
2022-08-26T16:33:47.144Z,96826.42
2022-08-26T16:37:29.514Z,96822.94
2022-08-26T16:44:31.281Z,96833.48
2022-08-26T16:47:04.423Z,96832.75
2022-08-26T16:49:38.126Z,96826.07
2022-08-26T16:52:46.730Z,96826.35
2022-08-26T16:55:45.505Z,96827.13
2022-08-26T17:02:00.864Z,96828.46
2022-08-26T17:04:33.540Z,96830.46
2022-08-26T17:07:25.716Z,96832.10
2022-08-26T17:09:59.221Z,96830.73
2022-08-26T17:12:51.578Z,96839.83
2022-08-26T17:16:00.000Z,96840.48
2022-08-26T17:18:34.089Z,96842.31
2022-08-26T17:24:34.493Z,96846.95
2022-08-26T17:27:42.425Z,96845.79
2022-08-26T17:34:00.720Z,96855.53
2022-08-26T17:36:50.914Z,96852.70
2022-08-26T17:43:11.670Z,96847.00
2022-08-26T17:45:44.955Z,96850.59
2022-08-26T17:52:17.959Z,96846.46
2022-08-26T17:55:45.267Z,96845.61
2022-08-26T18:01:58.948Z,96848.19
2022-08-26T18:04:31.768Z,96846.37
2022-08-26T18:07:43.860Z,96848.07
2022-08-26T18:10:20.250Z,96846.55
2022-08-26T18:15:54.824Z,96847.95
2022-08-26T18:18:45.554Z,96845.94
2022-08-26T18:21:37.732Z,96852.68
2022-08-26T18:24:30.615Z,96849.08
2022-08-26T18:27:04.025Z,96851.24
2022-08-26T18:29:54.771Z,96853.72
2022-08-26T18:33:03.425Z,96856.80
2022-08-26T18:36:28.343Z,96866.01
2022-08-26T18:39:19.271Z,96872.95
2022-08-26T18:42:31.455Z,96878.14
2022-08-26T18:45:41.396Z,96886.35
2022-08-26T18:48:51.227Z,96892.61
2022-08-26T18:51:45.694Z,96895.23
2022-08-26T18:54:39.028Z,96895.15
2022-08-26T18:58:05.646Z,96897.33
2022-08-26T19:03:47.432Z,96903.27
2022-08-26T19:07:13.015Z,96902.94
2022-08-26T19:10:05.291Z,96900.86
2022-08-26T19:13:00.793Z,96901.17
2022-08-26T19:15:53.106Z,96901.55
2022-08-26T19:19:17.758Z,96904.56
2022-08-26T19:21:52.158Z,96903.83
2022-08-26T19:24:59.670Z,96903.35
2022-08-26T19:27:50.326Z,96906.26
2022-08-26T19:31:07.017Z,96906.38
2022-08-26T19:34:31.848Z,96913.98
2022-08-26T19:44:37.259Z,96918.55
2022-08-26T19:51:15.288Z,96922.98
2022-08-26T19:54:23.295Z,96923.96
2022-08-26T20:00:25.210Z,96926.55
2022-08-26T20:02:57.997Z,96931.38
2022-08-26T20:06:07.077Z,96932.06
2022-08-26T20:08:58.791Z,96930.05
2022-08-26T20:21:46.804Z,96931.44
2022-08-26T20:25:13.589Z,96928.77
2022-08-26T20:32:09.369Z,96925.91
2022-08-26T20:37:50.803Z,96934.67
2022-08-26T20:40:59.328Z,96927.98
2022-08-26T20:43:49.453Z,96924.36
2022-08-26T20:49:48.255Z,96921.63
2022-08-26T20:52:43.964Z,96921.42
2022-08-26T20:55:51.716Z,96922.23
2022-08-26T20:58:24.988Z,96922.27
2022-08-26T21:04:57.770Z,96922.80
2022-08-26T21:07:30.537Z,96924.77
2022-08-26T21:10:04.693Z,96929.02
2022-08-26T21:12:59.002Z,96928.09
2022-08-26T21:15:49.320Z,96937.29
2022-08-26T21:18:41.894Z,96941.51
2022-08-26T21:21:49.751Z,96941.02
2022-08-26T21:24:57.045Z,96941.98
2022-08-26T21:27:47.218Z,96941.27
2022-08-26T21:30:21.143Z,96941.96
2022-08-26T21:35:52.212Z,96951.29
2022-08-26T21:38:28.418Z,96951.21
2022-08-26T21:41:22.245Z,96953.84
2022-08-26T21:43:57.565Z,96953.34
2022-08-26T21:46:52.296Z,96952.78
2022-08-26T21:49:44.210Z,96952.61
2022-08-26T21:52:17.201Z,96950.52
2022-08-26T21:54:52.068Z,96945.02
2022-08-26T21:58:02.715Z,96945.44
2022-08-26T22:01:31.580Z,96950.71
2022-08-26T22:04:05.977Z,96948.55
2022-08-26T22:09:55.755Z,96948.95
2022-08-26T22:12:47.206Z,96951.40
2022-08-26T22:15:41.378Z,96947.80
2022-08-26T22:18:32.484Z,96949.28
2022-08-26T22:24:50.708Z,96944.29
2022-08-26T22:32:02.731Z,96948.41
2022-08-26T22:37:43.843Z,96946.58
2022-08-26T22:40:35.222Z,96945.59
2022-08-26T22:43:43.238Z,96947.98
2022-08-26T22:46:54.609Z,96953.09
2022-08-26T22:52:58.448Z,96952.58
2022-08-26T22:56:06.518Z,96959.17
2022-08-26T22:58:40.151Z,96957.65
2022-08-26T23:01:13.475Z,96963.80
2022-08-26T23:06:54.498Z,96956.41
2022-08-26T23:10:21.023Z,96954.75
2022-08-26T23:16:18.959Z,96953.95
2022-08-26T23:18:53.066Z,96955.40
2022-08-26T23:21:43.541Z,96959.10
2022-08-26T23:24:33.754Z,96957.89
2022-08-26T23:27:23.434Z,96955.68
2022-08-26T23:33:48.372Z,96953.02
2022-08-26T23:36:22.527Z,96948.05
2022-08-26T23:39:48.427Z,96947.16
2022-08-26T23:45:47.385Z,96943.95
2022-08-26T23:48:37.627Z,96946.92
2022-08-26T23:51:46.758Z,96945.75
2022-08-26T23:55:13.715Z,96945.80
